^^
Saratoga-Weather Station Historical Data
Daily Summary for September 21, 2021 Units:  Metric    English   Both
Daily Weekly Monthly Yearly Custom
  High: Low: Average:
Temperature: 18.2 °C 11.9 °C 13.9 °C
Dew Point: 11.4 °C 8.5 °C 10.4 °C
Humidity: 93% 55% 81%
Wind Speed: 12.9km/h 0km/h 1.6km/h
Wind Gust: 17.7km/h - -
Wind- - SSE
Pressure: 1027.8 hPa 1022.4 hPa -
Precipitation: 0.0 mm    
Historical Graphs
 
 
Tabular Data for September 21, 2021
Time Temperature Dew Point Pressure Wind Wind Speed Wind Gust Humidity Rainfall Rate (Hourly) solar
00:02 13.3 °C 11.4 °C 1022.7 hPa Calm     88% 0.0 mm 0 W/m2
00:07 13.2 °C 11.3 °C 1022.7 hPa Calm     88% 0.0 mm 0 W/m2
00:12 13.1 °C 11.3 °C 1022.4 hPa ESE 1.4 km/h 1.6 km/h 89% 0.0 mm 0 W/m2
00:30 12.8 °C 11.4 °C 1022.7 hPa Calm     91% 0.0 mm 0 W/m2
00:35 12.8 °C 11.4 °C 1022.7 hPa Calm     91% 0.0 mm 0 W/m2
00:40 12.8 °C 11.4 °C 1022.7 hPa Calm     91% 0.0 mm 0 W/m2
00:45 12.7 °C 11.3 °C 1022.7 hPa Calm     91% 0.0 mm 0 W/m2
00:50 12.6 °C 11.2 °C 1022.7 hPa Calm     91% 0.0 mm 0 W/m2
00:55 12.6 °C 11.2 °C 1022.7 hPa Calm     91% 0.0 mm 0 W/m2
01:01 12.5 °C 11.1 °C 1023.0 hPa Calm     91% 0.0 mm 0 W/m2
01:06 12.5 °C 11.1 °C 1023.0 hPa ESE 1.4 km/h 1.6 km/h 91% 0.0 mm 0 W/m2
01:11 12.6 °C 11.3 °C 1023.0 hPa ESE 1.4 km/h 1.6 km/h 92% 0.0 mm 0 W/m2
01:16 12.6 °C 11.3 °C 1023.0 hPa Calm   1.6 km/h 92% 0.0 mm 0 W/m2
01:21 12.7 °C 11.3 °C 1023.0 hPa Calm     91% 0.0 mm 0 W/m2
01:26 12.7 °C 11.3 °C 1023.0 hPa ESE 1.4 km/h 1.6 km/h 91% 0.0 mm 0 W/m2
01:31 12.7 °C 11.3 °C 1023.0 hPa Calm     91% 0.0 mm 0 W/m2
01:36 12.7 °C 11.3 °C 1023.0 hPa Calm     91% 0.0 mm 0 W/m2
01:41 12.6 °C 11.2 °C 1022.7 hPa Calm     91% 0.0 mm 0 W/m2
01:46 12.6 °C 11 °C 1023.0 hPa Calm     90% 0.0 mm 0 W/m2
01:51 12.5 °C 10.9 °C 1023.0 hPa Calm     90% 0.0 mm 0 W/m2
01:56 12.4 °C 10.8 °C 1023.0 hPa Calm     90% 0.0 mm 0 W/m2
02:01 12.3 °C 10.7 °C 1023.0 hPa Calm     90% 0.0 mm 0 W/m2
02:06 12.2 °C 10.8 °C 1023.0 hPa Calm     91% 0.0 mm 0 W/m2
02:11 12.1 °C 10.7 °C 1023.0 hPa Calm     91% 0.0 mm 0 W/m2
02:16 12 °C 10.6 °C 1023.4 hPa Calm     91% 0.0 mm 0 W/m2
02:21 11.9 °C 10.5 °C 1023.4 hPa Calm     91% 0.0 mm 0 W/m2
02:40 12.1 °C 11 °C 1023.4 hPa Calm     93% 0.0 mm 0 W/m2
02:45 12.2 °C 11.1 °C 1023.4 hPa Calm     93% 0.0 mm 0 W/m2
02:50 12.2 °C 11.1 °C 1023.4 hPa Calm     93% 0.0 mm 0 W/m2
02:55 12.3 °C 11 °C 1023.4 hPa Calm     92% 0.0 mm 0 W/m2
03:00 12.3 °C 11 °C 1023.4 hPa Calm     92% 0.0 mm 0 W/m2
03:05 12.3 °C 11 °C 1023.4 hPa Calm     92% 0.0 mm 0 W/m2
03:10 12.3 °C 11 °C 1023.4 hPa ESE 1.4 km/h 1.6 km/h 92% 0.0 mm 0 W/m2
03:28 12.3 °C 10.9 °C 1023.4 hPa Calm     91% 0.0 mm 0 W/m2
03:33 12.3 °C 10.9 °C 1023.4 hPa Calm     91% 0.0 mm 0 W/m2
03:38 12.2 °C 10.8 °C 1023.4 hPa Calm     91% 0.0 mm 0 W/m2
03:44 12.2 °C 10.8 °C 1023.4 hPa Calm     91% 0.0 mm 0 W/m2
03:49 12.2 °C 10.8 °C 1023.4 hPa ESE 1.4 km/h 1.6 km/h 91% 0.0 mm 0 W/m2
03:54 12.2 °C 10.8 °C 1023.4 hPa Calm     91% 0.0 mm 0 W/m2
03:59 12.1 °C 10.7 °C 1023.7 hPa Calm     91% 0.0 mm 0 W/m2
04:04 12.1 °C 10.7 °C 1023.7 hPa Calm     91% 0.0 mm 0 W/m2
04:09 12.1 °C 10.7 °C 1023.7 hPa Calm     91% 0.0 mm 0 W/m2
04:14 12 °C 10.6 °C 1023.4 hPa Calm     91% 0.0 mm 0 W/m2
04:19 11.9 °C 10.3 °C 1023.7 hPa Calm     90% 0.0 mm 0 W/m2
04:24 11.9 °C 10.5 °C 1023.7 hPa Calm     91% 0.0 mm 0 W/m2
04:29 11.9 °C 10.5 °C 1023.7 hPa Calm     91% 0.0 mm 0 W/m2
04:34 11.9 °C 10.5 °C 1023.7 hPa ESE 1.4 km/h 1.6 km/h 91% 0.0 mm 0 W/m2
04:39 12 °C 10.6 °C 1023.7 hPa Calm     91% 0.0 mm 0 W/m2
04:44 12 °C 10.6 °C 1024.0 hPa Calm     91% 0.0 mm 0 W/m2
04:49 12.1 °C 10.7 °C 1024.0 hPa Calm     91% 0.0 mm 0 W/m2
04:54 12.1 °C 10.7 °C 1023.7 hPa Calm     91% 0.0 mm 0 W/m2
04:59 12.1 °C 10.7 °C 1024.0 hPa Calm     91% 0.0 mm 0 W/m2
05:04 12.1 °C 10.5 °C 1023.7 hPa Calm     90% 0.0 mm 0 W/m2
05:09 12 °C 10.4 °C 1024.0 hPa Calm     90% 0.0 mm 0 W/m2
05:14 12 °C 10.4 °C 1023.7 hPa Calm     90% 0.0 mm 0 W/m2
05:19 12.1 °C 10.7 °C 1023.7 hPa Calm     91% 0.0 mm 0 W/m2
05:24 12 °C 10.6 °C 1023.7 hPa Calm     91% 0.0 mm 0 W/m2
05:29 12 °C 10.6 °C 1024.0 hPa Calm     91% 0.0 mm 0 W/m2
05:34 12 °C 10.6 °C 1024.0 hPa Calm     91% 0.0 mm 0 W/m2
05:39 11.9 °C 10.5 °C 1024.0 hPa Calm     91% 0.0 mm 0 W/m2
05:44 11.9 °C 10.5 °C 1024.0 hPa Calm     91% 0.0 mm 0 W/m2
05:49 12 °C 10.7 °C 1024.0 hPa Calm     92% 0.0 mm 0 W/m2
05:54 12.1 °C 10.8 °C 1024.0 hPa Calm     92% 0.0 mm 0 W/m2
05:59 12.1 °C 10.8 °C 1024.0 hPa Calm   1.6 km/h 92% 0.0 mm 0 W/m2
06:04 12.2 °C 10.9 °C 1024.0 hPa Calm     92% 0.0 mm 0 W/m2
06:09 12.2 °C 10.9 °C 1024.0 hPa Calm     92% 0.0 mm 0 W/m2
06:14 12.3 °C 11 °C 1024.0 hPa Calm   3.2 km/h 92% 0.0 mm 0 W/m2
06:19 12.3 °C 11 °C 1024.0 hPa Calm     92% 0.0 mm 0 W/m2
06:40 12.3 °C 11 °C 1024.4 hPa Calm     92% 0.0 mm 0 W/m2
06:45 12.3 °C 11 °C 1024.4 hPa Calm     92% 0.0 mm 0 W/m2
06:50 12.3 °C 11 °C 1024.4 hPa Calm     92% 0.0 mm 0 W/m2
06:55 12.2 °C 10.9 °C 1024.4 hPa Calm   3.2 km/h 92% 0.0 mm 0 W/m2
07:00 12.2 °C 10.9 °C 1024.7 hPa Calm     92% 0.0 mm 0 W/m2
07:05 12.3 °C 11 °C 1024.7 hPa Calm   3.2 km/h 92% 0.0 mm 0 W/m2
07:10 12.2 °C 10.9 °C 1024.7 hPa Calm   1.6 km/h 92% 0.0 mm 0 W/m2
07:15 12.3 °C 10.9 °C 1024.7 hPa Calm   1.6 km/h 91% 0.0 mm 0 W/m2
07:20 12.3 °C 10.9 °C 1025.1 hPa Calm   3.2 km/h 91% 0.0 mm 0 W/m2
07:25 12.2 °C 10.8 °C 1025.1 hPa Calm   1.6 km/h 91% 0.0 mm 0 W/m2
07:30 12.2 °C 10.8 °C 1025.1 hPa Calm   3.2 km/h 91% 0.0 mm 7 W/m2
07:35 12.2 °C 10.8 °C 1025.1 hPa NE 1.4 km/h 3.2 km/h 91% 0.0 mm 9 W/m2
07:40 12.2 °C 10.6 °C 1025.1 hPa Calm   1.6 km/h 90% 0.0 mm 12 W/m2
07:45 12.2 °C 10.6 °C 1025.4 hPa Calm   1.6 km/h 90% 0.0 mm 16 W/m2
07:50 12.2 °C 10.8 °C 1025.4 hPa Calm     91% 0.0 mm 19 W/m2
07:55 12.2 °C 10.8 °C 1025.7 hPa Calm   3.2 km/h 91% 0.0 mm 21 W/m2
08:00 12.2 °C 10.8 °C 1025.7 hPa NNW 1.4 km/h 4.8 km/h 91% 0.0 mm 21 W/m2
08:05 12.3 °C 10.7 °C 1025.7 hPa Calm   1.6 km/h 90% 0.0 mm 30 W/m2
08:10 12.3 °C 10.7 °C 1025.7 hPa SSE 3.2 km/h 4.8 km/h 90% 0.0 mm 26 W/m2
08:15 12.3 °C 10.7 °C 1025.7 hPa Calm   3.2 km/h 90% 0.0 mm 32 W/m2
08:20 12.4 °C 10.6 °C 1026.1 hPa Calm     89% 0.0 mm 40 W/m2
08:25 12.4 °C 10.6 °C 1025.7 hPa NW 1.4 km/h 1.6 km/h 89% 0.0 mm 53 W/m2
08:30 12.5 °C 10.7 °C 1026.1 hPa Calm     89% 0.0 mm 62 W/m2
08:36 12.5 °C 10.7 °C 1026.1 hPa WNW 1.4 km/h 6.4 km/h 89% 0.0 mm 63 W/m2
08:41 12.6 °C 10.8 °C 1026.1 hPa Calm     89% 0.0 mm 72 W/m2
08:46 12.7 °C 10.8 °C 1026.1 hPa Calm   3.2 km/h 88% 0.0 mm 79 W/m2
08:51 12.7 °C 10.8 °C 1026.1 hPa East 1.4 km/h 3.2 km/h 88% 0.0 mm 88 W/m2
08:56 12.8 °C 10.7 °C 1026.4 hPa Calm   4.8 km/h 87% 0.0 mm 90 W/m2
09:01 12.8 °C 10.7 °C 1026.4 hPa Calm   1.6 km/h 87% 0.0 mm 77 W/m2
09:06 12.9 °C 10.8 °C 1026.4 hPa Calm   3.2 km/h 87% 0.0 mm 169 W/m2
09:11 13 °C 10.9 °C 1026.4 hPa ENE 1.4 km/h 1.6 km/h 87% 0.0 mm 144 W/m2
09:16 13.1 °C 11 °C 1026.8 hPa Calm   1.6 km/h 87% 0.0 mm 139 W/m2
09:21 13.3 °C 11 °C 1026.8 hPa NE 3.2 km/h 4.8 km/h 86% 0.0 mm 232 W/m2
09:26 13.4 °C 11.1 °C 1026.8 hPa Calm   3.2 km/h 86% 0.0 mm 137 W/m2
09:45 13.6 °C 10.8 °C 1026.8 hPa North 4.7 km/h 4.8 km/h 83% 0.0 mm 139 W/m2
09:50 13.6 °C 10.6 °C 1026.8 hPa East 3.2 km/h 8 km/h 82% 0.0 mm 155 W/m2
09:55 13.7 °C 10.7 °C 1026.8 hPa Calm   4.8 km/h 82% 0.0 mm 165 W/m2
10:00 13.8 °C 10.6 °C 1026.8 hPa North 3.2 km/h 8 km/h 81% 0.0 mm 181 W/m2
10:05 13.9 °C 10.5 °C 1026.8 hPa Calm   4.8 km/h 80% 0.0 mm 188 W/m2
10:10 14 °C 10.6 °C 1026.8 hPa NNE 3.2 km/h 6.4 km/h 80% 0.0 mm 190 W/m2
10:15 14.1 °C 10.5 °C 1026.8 hPa ENE 4.7 km/h 4.8 km/h 79% 0.0 mm 380 W/m2
10:20 14.3 °C 10.5 °C 1026.8 hPa ENE 4.7 km/h 8 km/h 78% 0.0 mm 387 W/m2
10:25 14.6 °C 10.8 °C 1026.8 hPa NE 1.4 km/h 9.7 km/h 78% 0.0 mm 403 W/m2
10:30 14.8 °C 10.8 °C 1026.8 hPa ENE 4.7 km/h 4.8 km/h 77% 0.0 mm 420 W/m2
10:35 14.9 °C 10.5 °C 1027.1 hPa East 9.7 km/h 9.7 km/h 75% 0.0 mm 427 W/m2
10:40 15 °C 10.4 °C 1027.1 hPa ENE 4.7 km/h 9.7 km/h 74% 0.0 mm 436 W/m2
10:45 15.1 °C 10.5 °C 1027.1 hPa Calm   3.2 km/h 74% 0.0 mm 439 W/m2
10:50 15.2 °C 10.8 °C 1027.1 hPa ENE 3.2 km/h 4.8 km/h 75% 0.0 mm 480 W/m2
10:55 15.4 °C 10.6 °C 1027.4 hPa NE 4.7 km/h 4.8 km/h 73% 0.0 mm 462 W/m2
11:00 15.6 °C 10.6 °C 1027.4 hPa Calm   4.8 km/h 72% 0.0 mm 468 W/m2
11:05 15.7 °C 10.7 °C 1027.4 hPa ENE 3.2 km/h 6.4 km/h 72% 0.0 mm 483 W/m2
11:10 15.7 °C 10.7 °C 1027.4 hPa Calm   6.4 km/h 72% 0.0 mm 504 W/m2
11:15 15.8 °C 10.6 °C 1027.4 hPa East 4.7 km/h 11.3 km/h 71% 0.0 mm 497 W/m2
11:20 15.8 °C 10.3 °C 1027.4 hPa East 1.4 km/h 11.3 km/h 70% 0.0 mm 561 W/m2
11:25 16 °C 10.1 °C 1027.4 hPa ENE 6.4 km/h 9.7 km/h 68% 0.0 mm 146 W/m2
11:30 15.9 °C 9.8 °C 1027.4 hPa SSE 1.4 km/h 11.3 km/h 67% 0.0 mm 550 W/m2
11:35 16.1 °C 10.2 °C 1027.4 hPa Calm   8 km/h 68% 0.0 mm 485 W/m2
11:40 16.2 °C 9.8 °C 1027.4 hPa NE 4.7 km/h 6.4 km/h 66% 0.0 mm 584 W/m2
11:45 16.3 °C 9.7 °C 1027.4 hPa WNW 4.7 km/h 6.4 km/h 65% 0.0 mm 550 W/m2
11:50 16.4 °C 9.8 °C 1027.4 hPa East 1.4 km/h 6.4 km/h 65% 0.0 mm 563 W/m2
11:55 16.7 °C 9.9 °C 1027.4 hPa Calm   4.8 km/h 64% 0.0 mm 577 W/m2
12:00 16.8 °C 9.2 °C 1027.8 hPa ESE 11.1 km/h 11.3 km/h 61% 0.0 mm 573 W/m2
12:05 16.9 °C 9.3 °C 1027.8 hPa NE 3.2 km/h 4.8 km/h 61% 0.0 mm 575 W/m2
12:10 17.1 °C 9.3 °C 1027.8 hPa NE 4.7 km/h 17.7 km/h 60% 0.0 mm 585 W/m2
12:15 17.2 °C 9.6 °C 1027.8 hPa Calm   11.3 km/h 61% 0.0 mm 619 W/m2
12:20 17.2 °C 8.9 °C 1027.8 hPa NNW 6.4 km/h 12.9 km/h 58% 0.0 mm 661 W/m2
12:25 17 °C 9.2 °C 1027.8 hPa NE 4.7 km/h 9.7 km/h 60% 0.0 mm 179 W/m2
12:45 16.9 °C 8.8 °C 1027.4 hPa ESE 11.1 km/h 11.3 km/h 59% 0.0 mm 647 W/m2
12:50 17.3 °C 9.2 °C 1027.4 hPa NE 12.9 km/h 12.9 km/h 59% 0.0 mm 654 W/m2
12:56 17.5 °C 8.9 °C 1027.4 hPa NW 1.4 km/h 6.4 km/h 57% 0.0 mm 668 W/m2
13:01 17.7 °C 9.3 °C 1027.4 hPa ESE 6.4 km/h 11.3 km/h 58% 0.0 mm 664 W/m2
13:06 17.9 °C 9 °C 1027.4 hPa NE 3.2 km/h 9.7 km/h 56% 0.0 mm 680 W/m2
13:11 18.1 °C 8.9 °C 1027.4 hPa NNW 3.2 km/h 8 km/h 55% 0.0 mm 694 W/m2
13:16 17.9 °C 8.7 °C 1027.4 hPa NNE 1.4 km/h 9.7 km/h 55% 0.0 mm 573 W/m2
13:21 17.7 °C 9.1 °C 1027.4 hPa North 3.2 km/h 6.4 km/h 57% 0.0 mm 121 W/m2
13:26 17.6 °C 9 °C 1027.4 hPa North 6.4 km/h 6.4 km/h 57% 0.0 mm 686 W/m2
13:31 17.6 °C 9 °C 1027.4 hPa North 1.4 km/h 8 km/h 57% 0.0 mm 686 W/m2
13:36 17.8 °C 9.2 °C 1027.4 hPa WNW 3.2 km/h 3.2 km/h 57% 0.0 mm 526 W/m2
13:41 17.7 °C 8.8 °C 1027.4 hPa NW 3.2 km/h 11.3 km/h 56% 0.0 mm 181 W/m2
13:46 17.4 °C 8.8 °C 1027.4 hPa NW 7.9 km/h 12.9 km/h 57% 0.0 mm 666 W/m2
13:51 17.5 °C 9.1 °C 1027.4 hPa ESE 4.7 km/h 6.4 km/h 58% 0.0 mm 712 W/m2
13:56 17.6 °C 9.2 °C 1027.4 hPa SE 1.4 km/h 6.4 km/h 58% 0.0 mm 710 W/m2
14:01 17.7 °C 8.8 °C 1027.4 hPa East 3.2 km/h 11.3 km/h 56% 0.0 mm 721 W/m2
14:06 17.8 °C 8.6 °C 1027.4 hPa WNW 6.4 km/h 6.4 km/h 55% 0.0 mm 664 W/m2
14:11 17.7 °C 8.5 °C 1027.4 hPa NW 4.7 km/h 9.7 km/h 55% 0.0 mm 684 W/m2
14:16 17.7 °C 8.5 °C 1027.8 hPa West 1.4 km/h 6.4 km/h 55% 0.0 mm 527 W/m2
14:21 17.5 °C 8.6 °C 1027.4 hPa North 3.2 km/h 6.4 km/h 56% 0.0 mm 647 W/m2
14:26 17.4 °C 8.8 °C 1027.8 hPa NNW 7.9 km/h 11.3 km/h 57% 0.0 mm 570 W/m2
14:31 17.5 °C 9.1 °C 1027.4 hPa NW 1.4 km/h 4.8 km/h 58% 0.0 mm 605 W/m2
14:36 17.7 °C 9.1 °C 1027.8 hPa WNW 3.2 km/h 9.7 km/h 57% 0.0 mm 585 W/m2
14:41 17.8 °C 9.2 °C 1027.4 hPa WNW 6.4 km/h 11.3 km/h 57% 0.0 mm 547 W/m2
14:57 18.1 °C 8.9 °C 1027.4 hPa North 1.4 km/h 11.3 km/h 55% 0.0 mm 603 W/m2
15:02 18.2 °C 9 °C 1027.4 hPa North 4.7 km/h 11.3 km/h 55% 0.0 mm 543 W/m2
15:07 18.1 °C 8.9 °C 1027.4 hPa NE 4.7 km/h 6.4 km/h 55% 0.0 mm 482 W/m2
15:12 18.2 °C 9 °C 1027.4 hPa Calm   6.4 km/h 55% 0.0 mm 541 W/m2
Juneau County Weather
Compliments of Weather Underground - 2 mb